createdAt,value
2023-05-05T00:01:29.709Z,85.96
2023-05-05T00:03:56.703Z,84.90
2023-05-05T00:06:23.716Z,84.99
2023-05-05T00:08:50.727Z,85.88
2023-05-05T00:11:17.725Z,85.88
2023-05-05T00:13:44.730Z,85.45
2023-05-05T00:16:11.644Z,85.52
2023-05-05T00:18:38.549Z,84.00
2023-05-05T00:21:05.614Z,84.16
2023-05-05T00:23:32.568Z,84.01
2023-05-05T00:25:59.600Z,84.19
2023-05-05T00:28:27.538Z,84.34
2023-05-05T00:30:54.563Z,83.83
2023-05-05T00:33:22.072Z,84.40
2023-05-05T00:35:49.030Z,84.44
2023-05-05T00:38:16.349Z,83.29
2023-05-05T00:40:43.341Z,83.39
2023-05-05T00:43:10.370Z,83.26
2023-05-05T00:45:39.093Z,83.57
2023-05-05T00:48:06.904Z,83.37
2023-05-05T00:50:34.808Z,83.44
2023-05-05T00:53:03.907Z,83.54
2023-05-05T00:55:31.799Z,83.09
2023-05-05T00:57:59.860Z,84.16
2023-05-05T01:00:28.150Z,84.14
2023-05-05T01:02:56.234Z,84.46
2023-05-05T01:05:27.040Z,84.77
2023-05-05T01:08:14.420Z,83.37
2023-05-05T01:10:44.081Z,83.15
2023-05-05T01:13:26.774Z,82.58
2023-05-05T01:16:25.233Z,82.32
2023-05-05T01:19:27.347Z,82.73
2023-05-05T01:21:59.250Z,82.58
2023-05-05T01:24:44.094Z,83.22
2023-05-05T01:27:49.537Z,83.43
2023-05-05T01:30:19.427Z,82.40
2023-05-05T01:32:55.383Z,82.13
2023-05-05T01:35:45.894Z,81.37
2023-05-05T01:38:17.126Z,80.78
2023-05-05T01:40:48.910Z,80.83
2023-05-05T01:43:19.554Z,80.15
2023-05-05T01:45:49.015Z,79.96
2023-05-05T01:48:20.052Z,79.89
2023-05-05T01:50:48.397Z,81.03
2023-05-05T01:53:17.641Z,80.79
2023-05-05T01:55:46.905Z,79.78
2023-05-05T01:58:16.900Z,81.14
2023-05-05T02:00:44.927Z,80.91
2023-05-05T02:03:15.440Z,80.43
2023-05-05T02:05:43.944Z,80.53
2023-05-05T02:08:12.354Z,80.28
2023-05-05T02:10:43.576Z,79.75
2023-05-05T02:13:13.104Z,80.13
2023-05-05T02:15:41.922Z,80.64
2023-05-05T02:18:10.879Z,80.17
2023-05-05T02:20:39.059Z,82.18
2023-05-05T02:23:08.022Z,82.61
2023-05-05T02:25:45.838Z,84.18
2023-05-05T02:28:21.497Z,83.03
2023-05-05T02:30:58.196Z,84.21
2023-05-05T02:33:31.645Z,85.44
2023-05-05T02:36:08.018Z,85.04
2023-05-05T02:38:39.135Z,86.50
2023-05-05T02:41:11.379Z,87.31
2023-05-05T02:43:42.650Z,86.29
2023-05-05T02:46:11.124Z,87.19
2023-05-05T02:48:40.901Z,87.34
2023-05-05T02:51:07.900Z,87.50
2023-05-05T02:53:37.282Z,86.84
2023-05-05T02:56:19.517Z,87.41
2023-05-05T02:59:03.554Z,87.48
2023-05-05T03:01:46.695Z,86.92
2023-05-05T03:04:39.016Z,86.58
2023-05-05T03:07:12.338Z,85.46
2023-05-05T03:09:55.896Z,84.25
2023-05-05T03:12:31.399Z,84.27
2023-05-05T03:15:13.828Z,82.67
2023-05-05T03:17:43.003Z,83.06
2023-05-05T03:20:12.535Z,83.61
2023-05-05T03:22:42.379Z,83.14
2023-05-05T03:25:13.047Z,83.34
2023-05-05T03:27:41.021Z,82.44
2023-05-05T03:30:09.655Z,82.61
2023-05-05T03:32:42.884Z,81.44
2023-05-05T03:35:10.031Z,80.93
2023-05-05T03:37:36.918Z,81.00
2023-05-05T03:40:04.107Z,80.84
2023-05-05T03:42:32.245Z,80.76
2023-05-05T03:44:59.217Z,81.93
2023-05-05T03:47:26.823Z,81.38
2023-05-05T03:49:54.656Z,80.86
2023-05-05T03:52:21.581Z,80.39
2023-05-05T03:54:48.906Z,79.98
2023-05-05T03:57:16.222Z,79.10
2023-05-05T03:59:43.308Z,78.20
2023-05-05T04:02:10.213Z,77.42
2023-05-05T04:04:37.080Z,75.46
2023-05-05T04:07:03.997Z,74.00
2023-05-05T04:09:30.948Z,72.43
2023-05-05T04:11:57.920Z,70.54
2023-05-05T04:14:25.301Z,70.27
2023-05-05T04:16:52.744Z,69.52
2023-05-05T04:19:20.266Z,70.16
2023-05-05T04:21:47.419Z,68.90
2023-05-05T04:24:14.509Z,67.53
2023-05-05T04:26:42.341Z,67.50
2023-05-05T04:29:09.906Z,65.90
2023-05-05T04:31:37.186Z,65.67
2023-05-05T04:34:04.226Z,68.40
2023-05-05T04:36:32.972Z,70.16
2023-05-05T04:38:59.940Z,69.08
2023-05-05T04:41:28.255Z,69.03
2023-05-05T04:43:57.128Z,68.95
2023-05-05T04:46:27.623Z,67.94
2023-05-05T04:48:54.807Z,66.55
2023-05-05T04:51:22.390Z,65.27
2023-05-05T04:53:49.238Z,63.20
2023-05-05T04:56:16.094Z,62.97
2023-05-05T04:58:43.012Z,61.94
2023-05-05T05:01:09.928Z,58.93
2023-05-05T05:03:36.818Z,58.90
2023-05-05T05:06:04.094Z,59.15
2023-05-05T05:08:31.045Z,59.21
2023-05-05T05:11:00.077Z,59.64
2023-05-05T05:13:27.124Z,59.41
2023-05-05T05:15:54.676Z,58.12
2023-05-05T05:18:21.577Z,58.16
2023-05-05T05:20:49.889Z,58.70
2023-05-05T05:23:16.923Z,58.54
2023-05-05T05:25:45.008Z,58.19
2023-05-05T05:28:13.574Z,57.74
2023-05-05T05:30:48.640Z,56.55
2023-05-05T05:33:15.596Z,55.51
2023-05-05T05:35:43.581Z,55.38
2023-05-05T05:38:10.712Z,57.46
2023-05-05T05:40:38.310Z,57.01
2023-05-05T05:43:06.596Z,57.14
2023-05-05T05:45:34.528Z,57.09
2023-05-05T05:48:03.584Z,56.57
2023-05-05T05:50:30.642Z,55.50
2023-05-05T05:52:58.928Z,57.65
2023-05-05T05:55:26.952Z,57.36
2023-05-05T05:57:54.407Z,56.94
2023-05-05T06:00:21.373Z,56.16
2023-05-05T06:02:55.216Z,55.70
2023-05-05T06:05:26.207Z,56.40
2023-05-05T06:07:53.727Z,57.47
2023-05-05T06:10:27.441Z,57.39
2023-05-05T06:13:01.684Z,56.75
2023-05-05T06:15:33.520Z,56.91
2023-05-05T06:18:02.136Z,57.58
2023-05-05T06:20:29.701Z,56.21
2023-05-05T06:22:56.549Z,56.83
2023-05-05T06:25:24.434Z,55.97
2023-05-05T06:27:53.908Z,56.12
2023-05-05T06:30:20.876Z,56.07
2023-05-05T06:32:47.739Z,56.89
2023-05-05T06:35:14.712Z,54.85
2023-05-05T06:37:42.428Z,55.15
2023-05-05T06:40:10.578Z,54.89
2023-05-05T06:42:38.183Z,56.40
2023-05-05T06:45:10.399Z,56.93
2023-05-05T06:47:37.976Z,55.07
2023-05-05T06:50:06.085Z,55.47
2023-05-05T06:52:47.907Z,55.93
2023-05-05T06:55:17.894Z,55.71
2023-05-05T06:57:49.729Z,55.12
2023-05-05T07:00:20.182Z,53.68
2023-05-05T07:02:50.541Z,53.98
2023-05-05T07:05:19.995Z,53.47
2023-05-05T07:07:56.381Z,53.37
2023-05-05T07:10:24.657Z,53.60
2023-05-05T07:12:52.764Z,54.23
2023-05-05T07:15:28.774Z,54.39
2023-05-05T07:17:59.160Z,53.11
2023-05-05T07:20:26.661Z,52.35
2023-05-05T07:22:53.726Z,51.62
2023-05-05T07:25:21.470Z,52.54
2023-05-05T07:27:48.440Z,52.29
2023-05-05T07:30:18.296Z,52.01
2023-05-05T07:32:46.072Z,51.45
2023-05-05T07:35:13.484Z,52.24
2023-05-05T07:37:40.344Z,51.96
2023-05-05T07:40:08.256Z,52.16
2023-05-05T07:42:35.653Z,52.39
2023-05-05T07:45:03.524Z,52.96
2023-05-05T07:47:30.687Z,52.71
2023-05-05T07:49:58.984Z,52.87
2023-05-05T07:52:43.341Z,53.40
2023-05-05T07:55:14.369Z,53.28
2023-05-05T07:57:42.226Z,53.29
2023-05-05T08:00:13.439Z,53.56
2023-05-05T08:02:41.489Z,53.71
2023-05-05T08:05:09.401Z,53.35
2023-05-05T08:07:41.638Z,52.78
2023-05-05T08:10:10.924Z,53.71
2023-05-05T08:12:38.188Z,52.75
2023-05-05T08:15:06.363Z,52.56
2023-05-05T08:17:46.322Z,52.41
2023-05-05T08:20:14.012Z,51.45
2023-05-05T08:22:42.768Z,51.77
2023-05-05T08:25:11.375Z,52.99
2023-05-05T08:27:39.591Z,51.64
2023-05-05T08:30:07.654Z,51.04
2023-05-05T08:32:35.543Z,51.40
2023-05-05T08:35:06.643Z,50.52
2023-05-05T08:41:32.008Z,50.10
2023-05-05T08:43:58.988Z,50.30
2023-05-05T08:46:28.261Z,50.98
2023-05-05T08:48:55.689Z,50.85
2023-05-05T08:51:28.054Z,50.67
2023-05-05T08:53:54.930Z,50.04
2023-05-05T08:56:22.620Z,48.88
2023-05-05T08:58:51.807Z,49.48
2023-05-05T09:01:21.032Z,49.59
2023-05-05T09:03:48.269Z,51.27
2023-05-05T09:06:15.636Z,50.92
2023-05-05T09:08:42.915Z,50.86
2023-05-05T09:11:09.842Z,49.62
2023-05-05T09:13:36.977Z,49.33
2023-05-05T09:16:04.254Z,49.53
2023-05-05T09:18:32.284Z,49.06
2023-05-05T09:20:59.551Z,49.76
2023-05-05T09:23:26.666Z,49.70
2023-05-05T09:26:08.937Z,50.00
2023-05-05T09:28:37.468Z,50.83
2023-05-05T09:31:16.185Z,51.63
2023-05-05T09:33:43.667Z,51.45
2023-05-05T09:36:11.744Z,52.46
2023-05-05T09:38:38.804Z,52.12
2023-05-05T09:41:07.030Z,52.27
2023-05-05T09:43:51.982Z,51.63
2023-05-05T09:46:19.206Z,51.35
2023-05-05T09:48:46.585Z,51.79
2023-05-05T09:51:13.640Z,52.05
2023-05-05T09:53:41.933Z,51.96
2023-05-05T09:56:09.610Z,52.44
2023-05-05T09:58:36.839Z,52.11
2023-05-05T10:01:03.777Z,51.22
2023-05-05T10:03:30.821Z,50.73
2023-05-05T10:05:59.738Z,51.96
2023-05-05T10:08:33.639Z,51.89
2023-05-05T10:11:06.842Z,52.67
2023-05-05T10:13:40.177Z,51.86
2023-05-05T10:16:09.321Z,52.59
2023-05-05T10:18:40.410Z,52.78
2023-05-05T10:21:25.583Z,53.55
2023-05-05T10:24:04.429Z,53.83
2023-05-05T10:26:35.803Z,53.76
2023-05-05T10:29:06.532Z,52.66
2023-05-05T10:31:36.313Z,52.01
2023-05-05T10:34:05.994Z,51.56
2023-05-05T10:36:34.009Z,50.84
2023-05-05T10:39:01.651Z,49.81
2023-05-05T10:41:31.543Z,50.18
2023-05-05T10:44:00.007Z,50.12
2023-05-05T10:46:29.397Z,50.45
2023-05-05T10:49:25.920Z,50.94
2023-05-05T10:52:05.797Z,51.44
2023-05-05T10:54:38.554Z,51.87
2023-05-05T10:57:10.740Z,51.82
2023-05-05T10:59:37.882Z,51.96
2023-05-05T11:02:29.856Z,51.40
2023-05-05T11:05:09.881Z,50.92
2023-05-05T11:07:37.956Z,50.17
2023-05-05T11:10:06.860Z,49.85
2023-05-05T11:12:54.912Z,48.85
2023-05-05T11:15:28.670Z,47.88
2023-05-05T11:17:57.900Z,47.47
2023-05-05T11:20:39.401Z,48.40
2023-05-05T11:23:06.336Z,48.20
2023-05-05T11:25:49.414Z,50.20
2023-05-05T11:28:17.843Z,51.08
2023-05-05T11:30:55.132Z,51.09
2023-05-05T11:33:28.382Z,49.86
2023-05-05T11:35:56.570Z,50.25
2023-05-05T11:38:55.956Z,50.71
2023-05-05T11:41:51.762Z,49.09
2023-05-05T11:44:20.334Z,49.62
2023-05-05T11:46:54.157Z,48.44
2023-05-05T11:49:31.714Z,48.72
2023-05-05T11:51:59.848Z,49.77
2023-05-05T11:54:27.402Z,50.59
2023-05-05T11:56:59.060Z,50.03
2023-05-05T11:59:26.123Z,50.38
2023-05-05T12:01:53.551Z,49.78
2023-05-05T12:04:20.745Z,48.80
2023-05-05T12:06:49.092Z,48.44
2023-05-05T12:09:16.523Z,47.66
2023-05-05T12:11:57.064Z,49.98
2023-05-05T12:14:25.630Z,51.92
2023-05-05T12:17:09.129Z,52.75
2023-05-05T12:19:36.533Z,52.41
2023-05-05T12:22:05.006Z,52.41
2023-05-05T12:24:32.240Z,55.01
2023-05-05T12:27:08.852Z,56.33
2023-05-05T12:29:35.856Z,56.76
2023-05-05T12:32:05.750Z,57.11
2023-05-05T12:34:52.661Z,55.95
2023-05-05T12:37:24.741Z,54.86
2023-05-05T12:39:55.139Z,56.66
2023-05-05T12:42:23.313Z,57.62
2023-05-05T12:44:50.704Z,58.35
2023-05-05T12:47:31.753Z,57.30
2023-05-05T12:50:00.363Z,55.58
2023-05-05T12:52:46.110Z,56.88
2023-05-05T12:55:13.402Z,56.82
2023-05-05T12:58:02.290Z,58.15
2023-05-05T13:00:29.354Z,58.11
2023-05-05T13:02:57.009Z,58.45
2023-05-05T13:05:34.454Z,59.23
2023-05-05T13:08:02.139Z,58.57
2023-05-05T13:10:31.378Z,59.08
2023-05-05T13:12:58.849Z,58.86
2023-05-05T13:15:26.395Z,58.40
2023-05-05T13:18:00.995Z,58.43
2023-05-05T13:20:28.263Z,57.00
2023-05-05T13:22:55.348Z,56.90
2023-05-05T13:25:22.545Z,56.06
2023-05-05T13:27:49.481Z,56.35
2023-05-05T13:30:16.476Z,55.25
2023-05-05T13:32:43.518Z,55.21
2023-05-05T13:35:12.129Z,55.29
2023-05-05T13:37:41.532Z,55.53
2023-05-05T13:40:09.208Z,54.62
2023-05-05T13:42:36.212Z,54.72
2023-05-05T13:45:03.461Z,54.89
2023-05-05T13:47:31.897Z,53.75
2023-05-05T13:49:59.089Z,52.71
2023-05-05T13:52:27.575Z,53.63
2023-05-05T13:54:55.269Z,53.62
2023-05-05T13:57:22.174Z,53.34
2023-05-05T13:59:49.181Z,54.92
2023-05-05T14:02:16.298Z,55.02
2023-05-05T14:04:43.331Z,54.64
2023-05-05T14:07:10.319Z,54.02
2023-05-05T14:09:37.294Z,53.53
2023-05-05T14:12:05.051Z,53.98
2023-05-05T14:14:32.061Z,55.87
2023-05-05T14:16:59.090Z,56.78
2023-05-05T14:19:26.142Z,57.69
2023-05-05T14:21:53.487Z,58.40
2023-05-05T14:24:20.825Z,58.22
2023-05-05T14:26:47.996Z,58.89
2023-05-05T14:29:15.039Z,58.74
2023-05-05T14:31:42.146Z,58.49
2023-05-05T14:34:09.161Z,59.72
2023-05-05T14:36:36.364Z,59.70
2023-05-05T14:39:03.422Z,59.50
2023-05-05T14:41:30.563Z,60.01
2023-05-05T14:43:57.528Z,59.62
2023-05-05T14:46:24.832Z,59.09
2023-05-05T14:48:52.131Z,59.24
2023-05-05T14:51:19.476Z,59.16
2023-05-05T14:53:46.764Z,58.64
2023-05-05T14:56:14.099Z,57.90
2023-05-05T14:58:41.180Z,58.00
2023-05-05T15:01:08.180Z,58.12
2023-05-05T15:03:35.596Z,57.85
2023-05-05T15:06:02.744Z,58.30
2023-05-05T15:08:29.661Z,58.42
2023-05-05T15:10:56.735Z,58.28
2023-05-05T15:13:25.128Z,58.44
2023-05-05T15:15:53.638Z,57.42
2023-05-05T15:18:20.545Z,57.87
2023-05-05T15:20:47.597Z,56.80
2023-05-05T15:23:14.798Z,56.37
2023-05-05T15:25:41.782Z,56.98
2023-05-05T15:28:08.741Z,56.70
2023-05-05T15:30:35.976Z,56.25
2023-05-05T15:33:03.015Z,55.85
2023-05-05T15:35:30.056Z,56.39
2023-05-05T15:37:57.283Z,56.07
2023-05-05T15:40:24.433Z,56.31
2023-05-05T15:42:51.639Z,56.60
2023-05-05T15:45:18.650Z,56.79
2023-05-05T15:47:47.948Z,57.96
2023-05-05T15:50:15.047Z,58.39
2023-05-05T15:52:42.499Z,58.52
2023-05-05T15:55:10.421Z,59.63
2023-05-05T15:57:40.410Z,60.13
2023-05-05T16:00:08.941Z,59.96
2023-05-05T16:02:37.166Z,59.39
2023-05-05T16:05:04.899Z,59.74
2023-05-05T16:07:32.025Z,59.03
2023-05-05T16:09:58.930Z,61.49
2023-05-05T16:12:26.013Z,61.91
2023-05-05T16:14:53.324Z,61.71
2023-05-05T16:17:21.703Z,63.32
2023-05-05T16:19:49.637Z,63.58
2023-05-05T16:22:16.616Z,62.07
2023-05-05T16:24:44.391Z,62.15
2023-05-05T16:27:11.955Z,62.34
2023-05-05T16:29:39.020Z,62.79
2023-05-05T16:32:06.467Z,62.83
2023-05-05T16:34:33.699Z,62.35
2023-05-05T16:37:01.014Z,62.14
2023-05-05T16:39:28.392Z,62.11
2023-05-05T16:41:55.612Z,62.67
2023-05-05T16:44:22.641Z,63.46
2023-05-05T16:50:46.063Z,63.38
2023-05-05T16:53:13.129Z,63.62
2023-05-05T16:55:40.512Z,63.86
2023-05-05T16:58:07.608Z,63.27
2023-05-05T17:03:19.444Z,62.57
2023-05-05T17:05:50.451Z,62.36
2023-05-05T17:08:17.612Z,61.45
2023-05-05T17:20:52.276Z,63.65
2023-05-05T17:23:21.282Z,63.77
2023-05-05T17:25:48.254Z,63.52
2023-05-05T17:28:17.537Z,63.40
2023-05-05T17:30:44.647Z,63.26
2023-05-05T17:33:11.749Z,62.83
2023-05-05T17:35:39.091Z,62.59
2023-05-05T17:38:06.185Z,61.94
2023-05-05T17:40:33.715Z,62.21
2023-05-05T17:43:00.957Z,62.62
2023-05-05T17:45:28.103Z,63.18
2023-05-05T17:47:55.641Z,63.71
2023-05-05T17:50:22.706Z,62.80
2023-05-05T17:52:49.757Z,63.18
2023-05-05T17:55:18.596Z,63.86
2023-05-05T17:57:47.402Z,61.59
2023-05-05T18:00:14.934Z,61.64
2023-05-05T18:02:44.619Z,62.45
2023-05-05T18:05:12.001Z,61.29
2023-05-05T18:07:39.153Z,62.84
2023-05-05T18:10:10.664Z,60.19
2023-05-05T18:12:37.921Z,59.66
2023-05-05T18:15:05.666Z,60.05
2023-05-05T18:17:34.430Z,60.98
2023-05-05T18:20:01.795Z,60.11
2023-05-05T18:22:31.688Z,59.90
2023-05-05T18:25:00.220Z,57.53
2023-05-05T18:27:28.257Z,57.91
2023-05-05T18:29:55.357Z,57.95
2023-05-05T18:32:23.964Z,57.22
2023-05-05T18:34:51.663Z,57.55
2023-05-05T18:37:18.909Z,56.75
2023-05-05T18:39:50.801Z,57.12
2023-05-05T18:42:27.791Z,56.90
2023-05-05T18:44:55.123Z,55.75
2023-05-05T18:47:22.301Z,57.83
2023-05-05T18:49:49.810Z,56.68
2023-05-05T18:52:20.154Z,56.37
2023-05-05T18:54:47.162Z,56.71
2023-05-05T18:57:15.174Z,56.44
2023-05-05T18:59:42.186Z,57.04
2023-05-05T19:02:09.130Z,57.48
2023-05-05T19:04:38.130Z,57.27
2023-05-05T19:07:08.628Z,57.31
2023-05-05T19:09:36.136Z,56.86
2023-05-05T19:12:04.812Z,58.18
2023-05-05T19:14:31.850Z,58.91
2023-05-05T19:16:59.719Z,57.36
2023-05-05T19:19:26.844Z,56.46
2023-05-05T19:21:54.914Z,56.93
2023-05-05T19:24:21.921Z,57.28
2023-05-05T19:26:48.863Z,58.00
2023-05-05T19:29:16.430Z,58.68
2023-05-05T19:31:43.424Z,58.50
2023-05-05T19:34:10.393Z,58.81
2023-05-05T19:36:38.365Z,59.12
2023-05-05T19:39:05.350Z,58.54
2023-05-05T19:41:32.715Z,58.24
2023-05-05T19:43:59.675Z,58.32
2023-05-05T19:46:26.918Z,58.99
2023-05-05T19:48:54.187Z,59.31
2023-05-05T19:51:21.422Z,57.54
2023-05-05T19:53:48.628Z,58.54
2023-05-05T19:56:17.230Z,59.38
2023-05-05T19:59:03.752Z,59.84
2023-05-05T20:01:30.950Z,60.45
2023-05-05T20:03:58.165Z,60.85
2023-05-05T20:06:27.272Z,60.40
2023-05-05T20:08:55.996Z,60.72
2023-05-05T20:11:24.294Z,60.48
2023-05-05T20:14:00.194Z,61.00
2023-05-05T20:16:27.557Z,60.92
2023-05-05T20:19:00.493Z,60.96
2023-05-05T20:21:29.645Z,60.48
2023-05-05T20:23:57.756Z,61.09
2023-05-05T20:26:25.819Z,60.70
2023-05-05T20:28:53.695Z,60.71
2023-05-05T20:31:22.252Z,61.32
2023-05-05T20:33:49.900Z,61.39
2023-05-05T20:36:19.152Z,61.47
2023-05-05T20:38:46.055Z,61.59
2023-05-05T20:41:13.053Z,61.99
2023-05-05T20:43:40.252Z,61.91
2023-05-05T20:46:12.214Z,62.13
2023-05-05T20:48:43.153Z,62.50
2023-05-05T20:51:13.305Z,61.94
2023-05-05T20:53:40.707Z,61.45
2023-05-05T20:56:08.811Z,62.29
2023-05-05T20:58:36.966Z,61.74
2023-05-05T21:01:04.406Z,62.04
2023-05-05T21:03:32.433Z,62.17
2023-05-05T21:05:59.327Z,62.16
2023-05-05T21:08:26.786Z,61.99
2023-05-05T21:10:53.804Z,62.60
2023-05-05T21:13:20.829Z,63.25
2023-05-05T21:15:50.377Z,63.56
2023-05-05T21:18:17.465Z,63.68
2023-05-05T21:20:46.747Z,63.26
2023-05-05T21:23:15.741Z,63.54
2023-05-05T21:25:43.164Z,63.60
2023-05-05T21:28:11.565Z,63.41
2023-05-05T21:30:39.856Z,63.11
2023-05-05T21:33:07.275Z,63.33
2023-05-05T21:35:37.788Z,63.69
2023-05-05T21:38:04.758Z,63.85
2023-05-05T21:40:32.737Z,64.15
2023-05-05T21:42:59.686Z,64.29
2023-05-05T21:45:26.753Z,64.44
2023-05-05T21:47:53.775Z,64.56
2023-05-05T21:50:20.761Z,64.02
2023-05-05T21:52:47.667Z,64.49
2023-05-05T21:55:14.811Z,64.51
2023-05-05T21:57:41.804Z,64.60
2023-05-05T22:00:09.732Z,64.68
2023-05-05T22:02:43.251Z,64.49
2023-05-05T22:05:10.604Z,64.34
2023-05-05T22:07:37.911Z,64.10
2023-05-05T22:10:05.260Z,64.31
2023-05-05T22:12:33.107Z,64.54
2023-05-05T22:15:00.291Z,64.31
2023-05-05T22:17:28.429Z,64.29
2023-05-05T22:19:55.410Z,64.36
2023-05-05T22:22:22.306Z,64.35
2023-05-05T22:24:49.235Z,65.05
2023-05-05T22:27:16.430Z,64.72
2023-05-05T22:29:43.436Z,64.82
2023-05-05T22:32:10.407Z,64.95
2023-05-05T22:34:37.381Z,64.99
2023-05-05T22:37:04.459Z,65.28
2023-05-05T22:39:32.660Z,65.43
2023-05-05T22:41:59.724Z,65.40
2023-05-05T22:44:26.666Z,65.10
2023-05-05T22:46:53.662Z,65.33
2023-05-05T22:49:21.015Z,65.45
2023-05-05T22:51:48.120Z,65.42
2023-05-05T22:54:15.078Z,65.68
2023-05-05T22:56:42.234Z,65.01
2023-05-05T22:59:10.774Z,65.22
2023-05-05T23:01:38.238Z,64.56
2023-05-05T23:04:06.572Z,64.62
2023-05-05T23:06:33.667Z,65.03
2023-05-05T23:09:00.721Z,64.63
2023-05-05T23:11:28.752Z,64.93
2023-05-05T23:13:55.732Z,65.28
2023-05-05T23:16:23.301Z,64.74
2023-05-05T23:18:50.417Z,64.66
2023-05-05T23:21:17.357Z,64.62
2023-05-05T23:23:44.559Z,64.40
2023-05-05T23:26:13.678Z,64.56
2023-05-05T23:28:41.697Z,64.96
2023-05-05T23:31:09.078Z,65.53
2023-05-05T23:33:36.086Z,65.78
2023-05-05T23:36:03.059Z,66.05
2023-05-05T23:38:30.062Z,64.59
2023-05-05T23:40:57.084Z,64.15
2023-05-05T23:43:24.072Z,64.04
2023-05-05T23:45:51.592Z,64.59
2023-05-05T23:48:18.585Z,64.71
2023-05-05T23:50:45.554Z,65.09
2023-05-05T23:53:12.640Z,66.09
2023-05-05T23:55:39.594Z,66.38
2023-05-05T23:58:06.517Z,66.54
